createdAt,value
2018-07-14T00:00:38.052Z,87.32
2018-07-14T00:03:05.243Z,87.47
2018-07-14T00:05:32.356Z,87.50
2018-07-14T00:07:59.517Z,86.40
2018-07-14T00:10:26.653Z,86.63
2018-07-14T00:12:53.740Z,87.02
2018-07-14T00:15:20.884Z,86.38
2018-07-14T00:17:47.993Z,85.74
2018-07-14T00:20:15.141Z,85.33
2018-07-14T00:22:42.344Z,84.83
2018-07-14T00:25:09.452Z,85.31
2018-07-14T00:27:36.553Z,86.91
2018-07-14T00:30:04.437Z,85.83
2018-07-14T00:32:31.600Z,85.62
2018-07-14T00:34:58.735Z,85.62
2018-07-14T00:37:25.827Z,87.22
2018-07-14T00:39:52.965Z,88.55
2018-07-14T00:42:20.147Z,88.35
2018-07-14T00:44:47.290Z,88.67
2018-07-14T00:47:14.419Z,88.64
2018-07-14T00:49:41.533Z,87.97
2018-07-14T00:52:08.668Z,89.44
2018-07-14T00:54:35.764Z,89.58
2018-07-14T00:57:02.868Z,90.12
2018-07-14T00:59:30.045Z,88.57
2018-07-14T01:01:57.176Z,87.43
2018-07-14T01:04:24.301Z,86.86
2018-07-14T01:06:51.448Z,85.53
2018-07-14T01:09:18.612Z,85.42
2018-07-14T01:11:45.728Z,85.77
2018-07-14T01:14:13.143Z,85.97
2018-07-14T01:16:40.640Z,86.20
2018-07-14T01:19:07.848Z,86.85
2018-07-14T01:21:35.024Z,86.97
2018-07-14T01:24:02.225Z,87.31
2018-07-14T01:26:29.348Z,88.02
2018-07-14T01:28:56.451Z,87.29
2018-07-14T01:31:23.548Z,86.31
2018-07-14T01:33:50.647Z,84.99
2018-07-14T01:36:17.777Z,84.76
2018-07-14T01:38:45.070Z,84.78
2018-07-14T01:41:12.193Z,85.08
2018-07-14T01:43:39.304Z,86.04
2018-07-14T01:46:06.420Z,87.88
2018-07-14T01:48:33.555Z,87.17
2018-07-14T01:51:00.695Z,87.10
2018-07-14T01:53:27.800Z,86.47
2018-07-14T01:55:54.948Z,86.01
2018-07-14T01:58:22.038Z,85.50
2018-07-14T02:00:49.262Z,86.12
2018-07-14T02:03:16.357Z,85.87
2018-07-14T02:05:43.438Z,87.90
2018-07-14T02:08:10.608Z,89.71
2018-07-14T02:10:37.712Z,91.24
2018-07-14T02:13:04.809Z,91.77
2018-07-14T02:15:31.931Z,91.83
2018-07-14T02:17:59.072Z,90.99
2018-07-14T02:20:26.218Z,89.19
2018-07-14T02:22:53.367Z,88.37
2018-07-14T02:25:20.760Z,88.44
2018-07-14T02:27:47.855Z,90.38
2018-07-14T02:30:14.953Z,90.97
2018-07-14T02:32:42.284Z,90.83
2018-07-14T02:35:09.435Z,89.16
2018-07-14T02:37:36.525Z,88.24
2018-07-14T02:40:04.843Z,87.69
2018-07-14T02:42:32.008Z,87.64
2018-07-14T02:44:59.192Z,90.52
2018-07-14T02:47:26.321Z,90.69
2018-07-14T02:49:53.508Z,89.05
2018-07-14T02:52:20.640Z,88.43
2018-07-14T02:54:47.991Z,88.90
2018-07-14T02:57:15.132Z,87.68
2018-07-14T02:59:42.497Z,88.18
2018-07-14T03:02:09.679Z,88.95
2018-07-14T03:04:36.886Z,88.22
2018-07-14T03:07:04.046Z,87.71
2018-07-14T03:09:31.281Z,89.50
2018-07-14T03:11:58.424Z,88.51
2018-07-14T03:14:25.574Z,87.94
2018-07-14T03:16:52.677Z,87.86
2018-07-14T03:19:19.883Z,87.84
2018-07-14T03:21:46.987Z,87.92
2018-07-14T03:24:14.128Z,90.22
2018-07-14T03:26:41.228Z,88.51
2018-07-14T03:29:08.372Z,89.74
2018-07-14T03:31:35.467Z,90.27
2018-07-14T03:34:02.685Z,89.89
2018-07-14T03:36:29.796Z,91.00
2018-07-14T03:38:56.931Z,91.88
2018-07-14T03:41:28.289Z,90.96
2018-07-14T03:43:55.499Z,92.26
2018-07-14T03:46:22.648Z,90.58
2018-07-14T03:48:49.765Z,89.09
2018-07-14T03:51:16.940Z,88.27
2018-07-14T03:53:44.075Z,88.08
2018-07-14T03:56:11.184Z,87.38
2018-07-14T03:58:38.297Z,87.62
2018-07-14T04:01:05.433Z,89.68
2018-07-14T04:03:32.568Z,89.37
2018-07-14T04:05:59.666Z,90.06
2018-07-14T04:08:26.732Z,89.51
2018-07-14T04:10:53.909Z,88.54
2018-07-14T04:13:21.022Z,88.44
2018-07-14T04:15:48.183Z,87.98
2018-07-14T04:18:15.343Z,88.81
2018-07-14T04:20:42.473Z,88.70
2018-07-14T04:23:09.619Z,88.90
2018-07-14T04:25:36.705Z,88.51
2018-07-14T04:28:03.836Z,89.77
2018-07-14T04:30:31.008Z,88.38
2018-07-14T04:32:58.205Z,88.12
2018-07-14T04:35:25.866Z,87.39
2018-07-14T04:37:53.052Z,87.57
2018-07-14T04:40:20.207Z,87.38
2018-07-14T04:42:47.340Z,87.25
2018-07-14T04:45:14.474Z,88.13
2018-07-14T04:47:41.641Z,87.69
2018-07-14T04:50:08.827Z,88.28
2018-07-14T04:52:36.221Z,87.53
2018-07-14T04:55:03.732Z,87.84
2018-07-14T04:57:30.864Z,87.13
2018-07-14T04:59:58.011Z,87.64
2018-07-14T05:02:25.143Z,88.94
2018-07-14T05:04:52.321Z,88.14
2018-07-14T05:07:19.484Z,86.97
2018-07-14T05:09:46.612Z,87.86
2018-07-14T05:12:13.767Z,86.82
2018-07-14T05:14:40.951Z,86.74
2018-07-14T05:17:08.094Z,85.41
2018-07-14T05:19:35.262Z,85.10
2018-07-14T05:22:02.421Z,84.65
2018-07-14T05:24:29.552Z,83.94
2018-07-14T05:26:56.687Z,82.28
2018-07-14T05:29:23.789Z,82.90
2018-07-14T05:31:50.940Z,83.96
2018-07-14T05:34:18.151Z,82.84
2018-07-14T05:36:45.338Z,82.31
2018-07-14T05:39:12.483Z,81.04
2018-07-14T05:41:39.745Z,81.45
2018-07-14T05:44:07.017Z,81.59
2018-07-14T05:46:34.084Z,81.12
2018-07-14T05:49:01.205Z,81.06
2018-07-14T05:51:28.327Z,80.72
2018-07-14T05:53:55.460Z,80.59
2018-07-14T05:56:22.621Z,79.90
2018-07-14T05:58:49.815Z,79.98
2018-07-14T06:01:17.004Z,78.50
2018-07-14T06:03:44.153Z,75.81
2018-07-14T06:06:11.287Z,77.59
2018-07-14T06:08:38.418Z,79.34
2018-07-14T06:11:05.557Z,76.76
2018-07-14T06:13:32.700Z,75.39
2018-07-14T06:15:59.825Z,76.03
2018-07-14T06:18:26.884Z,74.28
2018-07-14T06:20:54.016Z,73.96
2018-07-14T06:23:21.196Z,73.12
2018-07-14T06:25:48.324Z,73.27
2018-07-14T06:28:15.460Z,71.93
2018-07-14T06:30:42.617Z,71.33
2018-07-14T06:33:09.728Z,69.77
2018-07-14T06:35:37.063Z,69.07
2018-07-14T06:38:04.152Z,69.12
2018-07-14T06:40:31.288Z,69.44
2018-07-14T06:42:58.632Z,66.78
2018-07-14T06:45:25.756Z,66.46
2018-07-14T06:47:52.889Z,65.81
2018-07-14T06:50:20.069Z,66.41
2018-07-14T06:52:47.218Z,65.09
2018-07-14T06:55:14.350Z,64.58
2018-07-14T06:57:41.483Z,63.30
2018-07-14T07:00:08.692Z,62.36
2018-07-14T07:02:35.863Z,60.93
2018-07-14T07:05:03.564Z,60.38
2018-07-14T07:07:30.707Z,61.82
2018-07-14T07:10:05.043Z,61.84
2018-07-14T07:12:32.211Z,61.02
2018-07-14T07:14:59.369Z,59.59
2018-07-14T07:17:27.359Z,57.95
2018-07-14T07:19:54.717Z,58.05
2018-07-14T07:22:21.872Z,58.46
2018-07-14T07:24:49.040Z,58.05
2018-07-14T07:27:16.185Z,57.08
2018-07-14T07:29:43.324Z,59.38
2018-07-14T07:32:10.541Z,58.98
2018-07-14T07:34:37.750Z,58.38
2018-07-14T07:37:05.255Z,57.52
2018-07-14T07:39:32.638Z,60.45
2018-07-14T07:41:59.802Z,59.99
2018-07-14T07:44:26.976Z,57.95
2018-07-14T07:46:54.169Z,57.17
2018-07-14T07:49:21.300Z,56.98
2018-07-14T07:51:48.509Z,57.24
2018-07-14T07:54:15.688Z,57.07
2018-07-14T07:56:42.885Z,56.87
2018-07-14T07:59:10.111Z,55.06
2018-07-14T08:01:37.262Z,54.17
2018-07-14T08:04:04.379Z,53.51
2018-07-14T08:06:31.567Z,53.44
2018-07-14T08:08:58.719Z,52.72
2018-07-14T08:11:25.868Z,53.29
2018-07-14T08:13:53.009Z,52.10
2018-07-14T08:16:20.167Z,49.99
2018-07-14T08:18:47.333Z,51.80
2018-07-14T08:21:14.476Z,51.74
2018-07-14T08:23:41.614Z,48.16
2018-07-14T08:26:08.748Z,47.41
2018-07-14T08:28:35.899Z,47.84
2018-07-14T08:31:03.288Z,48.77
2018-07-14T08:33:30.433Z,47.73
2018-07-14T08:35:57.573Z,45.93
2018-07-14T08:38:24.724Z,46.63
2018-07-14T08:40:51.908Z,47.79
2018-07-14T08:43:19.036Z,47.25
2018-07-14T08:45:46.268Z,48.66
2018-07-14T08:48:13.508Z,45.01
2018-07-14T08:50:40.992Z,44.68
2018-07-14T08:53:08.174Z,44.57
2018-07-14T08:55:35.388Z,44.67
2018-07-14T08:58:02.633Z,43.13
2018-07-14T09:00:29.793Z,45.64
2018-07-14T09:02:57.049Z,46.03
2018-07-14T09:05:24.256Z,43.88
2018-07-14T09:07:51.554Z,43.04
2018-07-14T09:10:18.854Z,44.03
2018-07-14T09:12:46.071Z,43.12
2018-07-14T09:15:13.241Z,44.01
2018-07-14T09:17:40.427Z,43.79
2018-07-14T09:20:08.426Z,42.22
2018-07-14T09:22:35.600Z,39.88
2018-07-14T09:25:03.146Z,42.79
2018-07-14T09:27:30.285Z,42.39
2018-07-14T09:29:57.505Z,42.46
2018-07-14T09:32:24.681Z,41.35
2018-07-14T09:34:51.846Z,43.56
2018-07-14T09:37:19.021Z,43.43
2018-07-14T09:39:46.155Z,43.12
2018-07-14T09:42:13.348Z,42.61
2018-07-14T09:44:40.586Z,41.86
2018-07-14T09:47:07.800Z,40.68
2018-07-14T09:49:34.948Z,39.71
2018-07-14T09:52:02.142Z,39.91
2018-07-14T09:54:29.294Z,40.70
2018-07-14T09:56:56.491Z,40.37
2018-07-14T09:59:23.616Z,40.54
2018-07-14T10:01:50.972Z,40.31
2018-07-14T10:04:18.188Z,41.37
2018-07-14T10:06:45.475Z,41.69
2018-07-14T10:09:12.635Z,40.94
2018-07-14T10:11:39.816Z,40.06
2018-07-14T10:14:06.979Z,40.53
2018-07-14T10:16:34.209Z,39.50
2018-07-14T10:19:01.358Z,37.84
2018-07-14T10:21:28.512Z,38.33
2018-07-14T10:23:55.680Z,37.01
2018-07-14T10:26:22.833Z,36.62
2018-07-14T10:28:50.091Z,37.69
2018-07-14T10:31:17.360Z,38.13
2018-07-14T10:33:44.638Z,38.28
2018-07-14T10:36:11.681Z,37.82
2018-07-14T10:38:38.863Z,39.67
2018-07-14T10:41:06.027Z,39.24
2018-07-14T10:43:33.219Z,38.02
2018-07-14T10:46:00.366Z,37.56
2018-07-14T10:48:27.535Z,37.98
2018-07-14T10:50:54.702Z,36.74
2018-07-14T10:53:21.864Z,36.12
2018-07-14T10:55:49.031Z,36.05
2018-07-14T10:58:16.242Z,35.96
2018-07-14T11:00:43.391Z,35.31
2018-07-14T11:03:10.581Z,36.30
2018-07-14T11:05:37.779Z,33.92
2018-07-14T11:08:04.901Z,34.58
2018-07-14T11:10:32.081Z,33.68
2018-07-14T11:12:59.268Z,33.67
2018-07-14T11:15:26.373Z,33.80
2018-07-14T11:17:53.586Z,35.40
2018-07-14T11:20:20.691Z,32.90
2018-07-14T11:22:47.900Z,33.85
2018-07-14T11:25:15.009Z,32.81
2018-07-14T11:27:42.166Z,30.05
2018-07-14T11:30:09.346Z,32.18
2018-07-14T11:32:36.516Z,31.18
2018-07-14T11:35:04.668Z,34.35
2018-07-14T11:37:31.835Z,33.01
2018-07-14T11:39:58.939Z,34.55
2018-07-14T11:42:26.103Z,32.67
2018-07-14T11:44:53.228Z,31.46
2018-07-14T11:47:20.393Z,32.62
2018-07-14T11:49:47.572Z,32.63
2018-07-14T11:52:14.741Z,33.13
2018-07-14T11:54:41.864Z,34.82
2018-07-14T11:57:08.997Z,32.77
2018-07-14T11:59:36.125Z,31.59
2018-07-14T12:02:03.444Z,30.50
2018-07-14T12:04:30.527Z,30.77
2018-07-14T12:06:57.696Z,29.76
2018-07-14T12:09:24.864Z,29.91
2018-07-14T12:11:52.008Z,32.13
2018-07-14T12:14:19.080Z,33.06
2018-07-14T12:16:46.232Z,34.28
2018-07-14T12:19:13.396Z,33.33
2018-07-14T12:21:40.558Z,33.29
2018-07-14T12:24:07.707Z,32.01
2018-07-14T12:26:34.890Z,31.55
2018-07-14T12:29:02.060Z,32.43
2018-07-14T12:31:29.192Z,30.24
2018-07-14T12:33:56.315Z,29.62
2018-07-14T12:36:23.512Z,29.62
2018-07-14T12:38:50.669Z,29.31
2018-07-14T12:41:17.809Z,31.35
2018-07-14T12:43:44.981Z,32.28
2018-07-14T12:46:12.128Z,31.78
2018-07-14T12:48:39.343Z,30.55
2018-07-14T12:51:06.558Z,30.99
2018-07-14T12:53:33.874Z,30.97
2018-07-14T12:56:00.985Z,32.06
2018-07-14T12:58:28.135Z,31.59
2018-07-14T13:00:55.352Z,32.12
2018-07-14T13:03:22.549Z,31.80
2018-07-14T13:05:49.716Z,32.70
2018-07-14T13:08:16.896Z,31.48
2018-07-14T13:10:44.060Z,31.03
2018-07-14T13:13:11.350Z,30.49
2018-07-14T13:15:38.662Z,30.25
2018-07-14T13:18:05.845Z,28.74
2018-07-14T13:20:32.972Z,30.48
2018-07-14T13:23:00.116Z,30.85
2018-07-14T13:25:27.268Z,30.21
2018-07-14T13:27:54.511Z,30.89
2018-07-14T13:30:21.743Z,28.03
2018-07-14T13:32:48.868Z,30.89
2018-07-14T13:35:16.063Z,29.90
2018-07-14T13:37:43.213Z,29.88
2018-07-14T13:40:10.327Z,28.47
2018-07-14T13:42:37.647Z,28.11
2018-07-14T13:45:05.977Z,26.64
2018-07-14T13:47:33.186Z,26.05
2018-07-14T13:50:00.396Z,26.50
2018-07-14T13:52:27.564Z,25.96
2018-07-14T13:54:54.721Z,26.98
2018-07-14T13:57:21.876Z,26.43
2018-07-14T13:59:49.042Z,27.39
2018-07-14T14:02:16.267Z,26.69
2018-07-14T14:04:43.460Z,26.31
2018-07-14T14:07:10.631Z,27.96
2018-07-14T14:09:37.915Z,25.65
2018-07-14T14:12:05.684Z,23.68
2018-07-14T14:14:33.532Z,24.22
2018-07-14T14:17:00.692Z,26.73
2018-07-14T14:19:27.863Z,25.27
2018-07-14T14:21:55.152Z,24.02
2018-07-14T14:24:22.305Z,24.63
2018-07-14T14:26:49.467Z,23.82
2018-07-14T14:29:16.694Z,23.79
2018-07-14T14:31:43.762Z,25.58
2018-07-14T14:34:11.072Z,25.48
2018-07-14T14:36:38.291Z,26.82
2018-07-14T14:39:06.293Z,26.10
2018-07-14T14:41:33.423Z,26.06
2018-07-14T14:44:00.597Z,26.39
2018-07-14T14:46:27.751Z,25.33
2018-07-14T14:48:55.519Z,24.68
2018-07-14T14:51:23.724Z,24.78
2018-07-14T14:53:50.976Z,25.22
2018-07-14T14:56:18.153Z,22.98
2018-07-14T14:58:45.264Z,24.93
2018-07-14T15:01:12.442Z,24.53
2018-07-14T15:03:39.648Z,25.30
2018-07-14T15:06:06.835Z,26.33
2018-07-14T15:08:34.053Z,25.71
2018-07-14T15:11:01.212Z,23.51
2018-07-14T15:13:28.413Z,24.47
2018-07-14T15:15:55.672Z,23.11
2018-07-14T15:18:22.847Z,23.45
2018-07-14T15:20:50.021Z,23.66
2018-07-14T15:23:17.283Z,25.01
2018-07-14T15:25:44.435Z,23.92
2018-07-14T15:28:11.659Z,24.54
2018-07-14T15:30:38.857Z,25.96
2018-07-14T15:33:06.184Z,25.90
2018-07-14T15:35:33.213Z,28.64
2018-07-14T15:38:00.395Z,30.17
2018-07-14T15:40:27.625Z,30.16
2018-07-14T15:42:54.797Z,29.53
2018-07-14T15:45:21.964Z,26.40
2018-07-14T15:47:49.101Z,26.73
2018-07-14T15:50:16.249Z,28.53
2018-07-14T15:52:43.416Z,27.08
2018-07-14T15:55:10.587Z,27.59
2018-07-14T15:57:37.812Z,27.49
2018-07-14T16:00:06.441Z,27.47
2018-07-14T16:02:33.616Z,28.08
2018-07-14T16:05:00.735Z,27.36
2018-07-14T16:07:27.921Z,28.61
2018-07-14T16:09:55.089Z,28.72
2018-07-14T16:12:22.796Z,28.92
2018-07-14T16:14:49.907Z,29.06
2018-07-14T16:17:18.043Z,28.46
2018-07-14T16:19:45.200Z,29.39
2018-07-14T16:22:12.365Z,29.67
2018-07-14T16:24:39.930Z,29.11
2018-07-14T16:27:07.132Z,29.63
2018-07-14T16:29:34.299Z,29.41
2018-07-14T16:32:01.489Z,30.31
2018-07-14T16:34:28.676Z,28.91
2018-07-14T16:36:55.911Z,30.47
2018-07-14T16:39:23.060Z,29.59
2018-07-14T16:41:50.232Z,30.06
2018-07-14T16:44:17.399Z,29.62
2018-07-14T16:46:44.514Z,30.80
2018-07-14T16:49:11.673Z,29.62
2018-07-14T16:51:38.868Z,30.08
2018-07-14T16:54:06.069Z,30.01
2018-07-14T16:56:33.236Z,29.19
2018-07-14T16:59:00.404Z,30.77
2018-07-14T17:01:27.576Z,30.71
2018-07-14T17:03:54.713Z,29.94
2018-07-14T17:06:21.856Z,30.10
2018-07-14T17:08:49.001Z,30.38
2018-07-14T17:11:16.155Z,30.66
2018-07-14T17:13:43.329Z,31.25
2018-07-14T17:16:10.463Z,30.51
2018-07-14T17:18:37.608Z,30.88
2018-07-14T17:21:04.756Z,29.96
2018-07-14T17:23:31.932Z,30.98
2018-07-14T17:25:59.139Z,31.57
2018-07-14T17:28:26.344Z,31.75
2018-07-14T17:30:53.492Z,31.11
2018-07-14T17:33:20.637Z,33.05
2018-07-14T17:35:47.907Z,32.92
2018-07-14T17:38:15.053Z,33.11
2018-07-14T17:40:42.174Z,32.74
2018-07-14T17:43:09.344Z,34.85
2018-07-14T17:45:36.617Z,34.00
2018-07-14T17:48:03.899Z,34.14
2018-07-14T17:50:31.060Z,34.79
2018-07-14T17:52:58.272Z,35.38
2018-07-14T17:55:25.494Z,34.43
2018-07-14T17:57:52.660Z,34.48
2018-07-14T18:00:19.787Z,34.22
2018-07-14T18:02:46.916Z,34.21
2018-07-14T18:05:14.126Z,34.41
2018-07-14T18:07:41.369Z,34.50
2018-07-14T18:10:08.558Z,34.56
2018-07-14T18:12:35.717Z,34.71
2018-07-14T18:15:03.284Z,34.09
2018-07-14T18:17:30.448Z,34.54
2018-07-14T18:19:57.577Z,34.61
2018-07-14T18:22:24.741Z,34.05
2018-07-14T18:24:51.916Z,35.36
2018-07-14T18:27:19.093Z,34.79
2018-07-14T18:29:46.247Z,35.69
2018-07-14T18:32:13.472Z,36.02
2018-07-14T18:34:40.599Z,35.84
2018-07-14T18:37:07.774Z,35.31
2018-07-14T18:39:34.913Z,34.74
2018-07-14T18:42:02.104Z,35.32
2018-07-14T18:44:29.254Z,36.32
2018-07-14T18:46:56.413Z,37.32
2018-07-14T18:49:23.547Z,36.97
2018-07-14T18:51:50.640Z,35.75
2018-07-14T18:54:17.859Z,36.81
2018-07-14T18:56:45.175Z,37.01
2018-07-14T18:59:12.344Z,37.40
2018-07-14T19:01:39.633Z,36.77
2018-07-14T19:04:06.920Z,38.18
2018-07-14T19:06:34.057Z,37.67
2018-07-14T19:09:01.294Z,38.10
2018-07-14T19:11:28.452Z,37.83
2018-07-14T19:13:55.624Z,39.01
2018-07-14T19:16:22.780Z,39.77
2018-07-14T19:18:49.935Z,40.81
2018-07-14T19:21:17.076Z,40.91
2018-07-14T19:23:44.272Z,41.95
2018-07-14T19:26:11.516Z,43.02
2018-07-14T19:28:38.638Z,44.58
2018-07-14T19:31:05.796Z,45.53
2018-07-14T19:33:32.954Z,45.64
2018-07-14T19:36:00.096Z,45.26
2018-07-14T19:38:27.322Z,46.45
2018-07-14T19:40:54.484Z,46.17
2018-07-14T19:43:21.605Z,46.76
2018-07-14T19:45:48.762Z,47.53
2018-07-14T19:48:15.908Z,47.77
2018-07-14T19:50:43.028Z,48.33
2018-07-14T19:53:10.180Z,48.25
2018-07-14T19:55:37.326Z,49.91
2018-07-14T19:58:04.956Z,49.10
2018-07-14T20:00:32.100Z,50.09
2018-07-14T20:02:59.234Z,50.59
2018-07-14T20:05:26.344Z,50.28
2018-07-14T20:07:53.546Z,49.89
2018-07-14T20:10:20.686Z,50.25
2018-07-14T20:12:47.848Z,50.39
2018-07-14T20:15:21.756Z,50.67
2018-07-14T20:17:48.952Z,51.01
2018-07-14T20:20:16.133Z,50.86
2018-07-14T20:22:43.428Z,51.62
2018-07-14T20:25:10.561Z,51.00
2018-07-14T20:27:38.042Z,52.31
2018-07-14T20:30:05.546Z,51.93
2018-07-14T20:32:32.702Z,50.61
2018-07-14T20:35:00.004Z,50.90
2018-07-14T20:37:27.108Z,50.99
2018-07-14T20:39:54.236Z,52.26
2018-07-14T20:42:21.392Z,53.47
2018-07-14T20:44:48.503Z,54.07
2018-07-14T20:47:15.673Z,54.41
2018-07-14T20:49:42.792Z,54.03
2018-07-14T20:52:09.970Z,54.01
2018-07-14T20:54:37.127Z,53.16
2018-07-14T20:57:04.288Z,53.59
2018-07-14T20:59:31.421Z,54.10
2018-07-14T21:01:58.517Z,54.50
2018-07-14T21:04:25.739Z,54.63
2018-07-14T21:06:52.941Z,54.47
2018-07-14T21:09:20.082Z,54.56
2018-07-14T21:11:47.209Z,54.46
2018-07-14T21:14:14.316Z,54.83
2018-07-14T21:16:41.474Z,55.19
2018-07-14T21:19:08.732Z,56.65
2018-07-14T21:21:35.950Z,56.32
2018-07-14T21:24:03.132Z,55.85
2018-07-14T21:26:30.297Z,56.02
2018-07-14T21:28:57.410Z,58.03
2018-07-14T21:31:24.567Z,58.38
2018-07-14T21:33:51.739Z,60.10
2018-07-14T21:36:18.953Z,60.71
2018-07-14T21:38:46.132Z,58.94
2018-07-14T21:41:13.312Z,59.88
2018-07-14T21:43:43.012Z,58.74
2018-07-14T21:46:10.140Z,60.08
2018-07-14T21:48:37.248Z,61.60
2018-07-14T21:51:04.496Z,60.60
2018-07-14T21:53:31.696Z,60.58
2018-07-14T21:55:58.787Z,61.27
2018-07-14T21:58:25.909Z,61.48
2018-07-14T22:01:04.677Z,61.22
2018-07-14T22:03:32.839Z,62.42
2018-07-14T22:05:59.935Z,63.11
2018-07-14T22:08:27.068Z,61.67
2018-07-14T22:10:54.200Z,61.66
2018-07-14T22:13:21.341Z,61.31
2018-07-14T22:15:48.542Z,61.39
2018-07-14T22:18:15.703Z,60.30
2018-07-14T22:20:42.843Z,59.56
2018-07-14T22:23:10.130Z,60.39
2018-07-14T22:25:37.244Z,61.97
2018-07-14T22:28:11.326Z,65.32
2018-07-14T22:30:38.668Z,65.62
2018-07-14T22:33:05.873Z,65.28
2018-07-14T22:35:32.990Z,65.32
2018-07-14T22:38:00.208Z,66.51
2018-07-14T22:40:27.372Z,66.35
2018-07-14T22:42:54.517Z,66.22
2018-07-14T22:45:21.739Z,64.82
2018-07-14T22:47:48.847Z,65.15
2018-07-14T22:50:16.011Z,64.25
2018-07-14T22:52:43.180Z,65.24
2018-07-14T22:55:10.349Z,64.14
2018-07-14T22:57:37.544Z,64.57
2018-07-14T23:00:05.949Z,65.24
2018-07-14T23:02:33.074Z,65.43
2018-07-14T23:05:00.208Z,67.25
2018-07-14T23:07:27.340Z,68.03
2018-07-14T23:09:54.522Z,67.10
2018-07-14T23:12:21.796Z,68.01
2018-07-14T23:14:48.902Z,67.34
2018-07-14T23:17:16.048Z,67.16
2018-07-14T23:19:43.143Z,68.04
2018-07-14T23:22:10.311Z,68.29
2018-07-14T23:24:37.503Z,67.21
2018-07-14T23:27:04.585Z,66.27
2018-07-14T23:29:31.772Z,67.19
2018-07-14T23:31:58.926Z,67.55
2018-07-14T23:34:26.052Z,67.63
2018-07-14T23:36:53.154Z,67.34
2018-07-14T23:39:20.308Z,65.90
2018-07-14T23:41:47.449Z,66.13
2018-07-14T23:44:14.607Z,67.44
2018-07-14T23:46:41.764Z,70.72
2018-07-14T23:49:08.880Z,72.33
2018-07-14T23:51:36.087Z,71.00
2018-07-14T23:54:03.350Z,68.54
2018-07-14T23:56:30.484Z,68.67
2018-07-14T23:58:57.670Z,71.56
